createdAt,value
2023-04-13T00:01:11.345Z,50.90
2023-04-13T00:03:41.781Z,50.70
2023-04-13T00:06:11.587Z,50.70
2023-04-13T00:08:42.995Z,50.70
2023-04-13T00:11:12.482Z,50.60
2023-04-13T00:13:43.099Z,50.50
2023-04-13T00:16:13.915Z,50.50
2023-04-13T00:18:43.998Z,50.40
2023-04-13T00:21:12.714Z,50.40
2023-04-13T00:23:41.358Z,50.40
2023-04-13T00:26:09.944Z,50.50
2023-04-13T00:28:38.600Z,50.40
2023-04-13T00:31:08.111Z,50.40
2023-04-13T00:33:36.822Z,50.40
2023-04-13T00:36:08.085Z,50.60
2023-04-13T00:38:37.096Z,50.50
2023-04-13T00:41:06.327Z,50.60
2023-04-13T00:43:35.013Z,50.50
2023-04-13T00:46:03.808Z,50.50
2023-04-13T00:48:32.701Z,50.50
2023-04-13T00:51:01.318Z,50.50
2023-04-13T00:53:33.594Z,50.40
2023-04-13T00:56:04.059Z,50.20
2023-04-13T00:58:32.880Z,50.30
2023-04-13T01:01:01.495Z,50.30
2023-04-13T01:03:30.434Z,50.30
2023-04-13T01:06:18.191Z,50.20
2023-04-13T01:08:54.343Z,49.90
2023-04-13T01:11:29.594Z,50.00
2023-04-13T01:14:08.960Z,50.00
2023-04-13T01:16:45.840Z,49.80
2023-04-13T01:19:24.342Z,50.00
2023-04-13T01:21:54.781Z,49.90
2023-04-13T01:24:36.814Z,50.00
2023-04-13T01:27:13.141Z,49.80
2023-04-13T01:29:45.376Z,50.00
2023-04-13T01:32:16.386Z,49.90
2023-04-13T01:34:46.460Z,50.00
2023-04-13T01:37:17.441Z,50.00
2023-04-13T01:39:49.382Z,50.00
2023-04-13T01:42:34.881Z,49.90
2023-04-13T01:45:06.401Z,49.80
2023-04-13T01:47:38.455Z,49.60
2023-04-13T01:50:31.129Z,49.70
2023-04-13T01:53:16.396Z,49.30
2023-04-13T01:55:46.807Z,49.20
2023-04-13T01:58:17.109Z,49.40
2023-04-13T02:00:54.622Z,49.30
2023-04-13T02:03:23.776Z,49.10
2023-04-13T02:05:52.831Z,49.40
2023-04-13T02:08:21.517Z,49.50
2023-04-13T02:10:50.263Z,49.40
2023-04-13T02:13:18.878Z,49.40
2023-04-13T02:15:48.449Z,49.20
2023-04-13T02:18:18.578Z,49.10
2023-04-13T02:20:47.267Z,49.10
2023-04-13T02:23:16.007Z,49.10
2023-04-13T02:25:47.634Z,49.00
2023-04-13T02:28:17.978Z,49.00
2023-04-13T02:30:48.370Z,48.80
2023-04-13T02:33:19.301Z,48.60
2023-04-13T02:35:49.461Z,48.60
2023-04-13T02:38:19.502Z,48.60
2023-04-13T02:40:56.642Z,48.60
2023-04-13T02:43:26.521Z,48.60
2023-04-13T02:45:55.801Z,48.60
2023-04-13T02:48:29.132Z,48.60
2023-04-13T02:50:58.633Z,48.60
2023-04-13T02:53:32.353Z,48.60
2023-04-13T02:56:06.852Z,48.50
2023-04-13T02:58:36.526Z,48.60
2023-04-13T03:01:09.775Z,48.50
2023-04-13T03:03:41.884Z,48.60
2023-04-13T03:06:11.394Z,48.40
2023-04-13T03:09:01.730Z,48.50
2023-04-13T03:11:37.699Z,48.40
2023-04-13T03:14:13.255Z,48.30
2023-04-13T03:16:42.949Z,49.00
2023-04-13T03:19:14.346Z,48.20
2023-04-13T03:21:46.513Z,48.10
2023-04-13T03:24:19.695Z,48.20
2023-04-13T03:26:49.256Z,48.20
2023-04-13T03:29:24.303Z,48.10
2023-04-13T03:31:53.225Z,48.10
2023-04-13T03:34:24.057Z,48.00
2023-04-13T03:36:53.732Z,47.90
2023-04-13T03:39:23.138Z,47.90
2023-04-13T03:41:51.799Z,47.90
2023-04-13T03:44:21.344Z,48.00
2023-04-13T03:46:50.172Z,47.90
2023-04-13T03:49:37.652Z,47.90
2023-04-13T03:52:06.659Z,47.90
2023-04-13T03:54:40.890Z,48.00
2023-04-13T03:57:09.737Z,48.10
2023-04-13T03:59:38.518Z,48.10
2023-04-13T04:02:11.070Z,48.10
2023-04-13T04:04:44.170Z,48.10
2023-04-13T04:07:13.059Z,47.90
2023-04-13T04:09:43.033Z,48.00
2023-04-13T04:12:14.408Z,48.00
2023-04-13T04:14:45.454Z,48.10
2023-04-13T04:17:19.978Z,48.00
2023-04-13T04:19:50.319Z,48.00
2023-04-13T04:22:30.362Z,47.90
2023-04-13T04:25:00.409Z,48.00
2023-04-13T04:27:29.876Z,48.10
2023-04-13T04:30:05.188Z,47.90
2023-04-13T04:32:40.672Z,47.90
2023-04-13T04:35:19.362Z,48.00
2023-04-13T04:37:55.215Z,47.80
2023-04-13T04:40:25.876Z,47.90
2023-04-13T04:42:55.153Z,47.90
2023-04-13T04:45:47.227Z,47.90
2023-04-13T04:48:19.724Z,47.80
2023-04-13T04:50:52.559Z,48.60
2023-04-13T04:53:21.734Z,47.80
2023-04-13T04:55:50.574Z,47.90
2023-04-13T04:58:37.012Z,47.90
2023-04-13T05:01:06.820Z,47.90
2023-04-13T05:03:36.189Z,47.90
2023-04-13T05:06:21.407Z,48.00
2023-04-13T05:08:50.202Z,47.80
2023-04-13T05:11:20.703Z,47.90
2023-04-13T05:13:50.542Z,47.80
2023-04-13T05:16:22.977Z,47.80
2023-04-13T05:18:53.475Z,47.80
2023-04-13T05:21:51.127Z,47.70
2023-04-13T05:24:20.306Z,47.70
2023-04-13T05:26:49.627Z,47.70
2023-04-13T05:29:23.675Z,47.70
2023-04-13T05:31:52.372Z,47.80
2023-04-13T05:34:21.886Z,47.70
2023-04-13T05:37:05.416Z,47.70
2023-04-13T05:39:34.270Z,47.70
2023-04-13T05:42:03.282Z,47.70
2023-04-13T05:44:35.463Z,47.80
2023-04-13T05:47:04.608Z,48.20
2023-04-13T05:49:34.803Z,47.70
2023-04-13T05:52:07.659Z,47.60
2023-04-13T05:54:44.816Z,47.60
2023-04-13T05:57:13.637Z,47.70
2023-04-13T05:59:48.458Z,47.70
2023-04-13T06:02:22.743Z,47.70
2023-04-13T06:04:53.703Z,47.70
2023-04-13T06:07:26.145Z,47.90
2023-04-13T06:09:54.945Z,47.90
2023-04-13T06:12:24.081Z,47.90
2023-04-13T06:14:54.470Z,47.90
2023-04-13T06:17:23.111Z,48.00
2023-04-13T06:19:52.129Z,48.10
2023-04-13T06:22:20.851Z,48.10
2023-04-13T06:24:52.876Z,48.00
2023-04-13T06:27:21.752Z,47.70
2023-04-13T06:29:52.504Z,47.90
2023-04-13T06:32:21.482Z,47.90
2023-04-13T06:34:50.723Z,47.90
2023-04-13T06:37:21.086Z,47.80
2023-04-13T06:39:53.995Z,47.80
2023-04-13T06:42:22.699Z,47.70
2023-04-13T06:45:26.671Z,48.00
2023-04-13T06:47:56.354Z,47.90
2023-04-13T06:50:26.728Z,47.90
2023-04-13T06:53:00.675Z,47.80
2023-04-13T06:55:31.168Z,47.70
2023-04-13T06:58:00.562Z,47.70
2023-04-13T07:00:30.639Z,47.80
2023-04-13T07:03:02.141Z,47.80
2023-04-13T07:05:31.577Z,47.90
2023-04-13T07:08:07.377Z,47.80
2023-04-13T07:10:40.907Z,47.80
2023-04-13T07:13:17.720Z,47.80
2023-04-13T07:15:47.553Z,48.60
2023-04-13T07:18:16.591Z,47.90
2023-04-13T07:20:45.196Z,47.90
2023-04-13T07:23:15.231Z,48.00
2023-04-13T07:25:46.368Z,48.00
2023-04-13T07:28:23.211Z,47.90
2023-04-13T07:30:55.499Z,47.90
2023-04-13T07:33:24.624Z,47.90
2023-04-13T07:35:55.568Z,48.60
2023-04-13T07:38:27.367Z,47.90
2023-04-13T07:40:57.415Z,48.00
2023-04-13T07:43:29.764Z,47.90
2023-04-13T07:46:01.960Z,48.10
2023-04-13T07:48:30.737Z,48.10
2023-04-13T07:51:06.093Z,48.10
2023-04-13T07:53:34.882Z,48.00
2023-04-13T07:56:05.262Z,48.20
2023-04-13T07:58:38.428Z,48.10
2023-04-13T08:01:08.002Z,48.10
2023-04-13T08:03:37.536Z,48.10
2023-04-13T08:06:13.259Z,48.10
2023-04-13T08:08:42.482Z,48.20
2023-04-13T08:11:13.091Z,48.30
2023-04-13T08:13:43.084Z,48.30
2023-04-13T08:16:12.560Z,48.40
2023-04-13T08:18:42.903Z,48.50
2023-04-13T08:21:15.210Z,48.40
2023-04-13T08:23:46.703Z,48.60
2023-04-13T08:26:21.516Z,48.70
2023-04-13T08:28:53.074Z,48.60
2023-04-13T08:31:21.891Z,48.60
2023-04-13T08:33:57.935Z,48.70
2023-04-13T08:36:27.660Z,48.70
2023-04-13T08:39:04.184Z,48.80
2023-04-13T08:41:41.105Z,48.80
2023-04-13T08:44:10.745Z,48.80
2023-04-13T08:46:42.822Z,48.90
2023-04-13T08:49:13.178Z,49.00
2023-04-13T08:52:09.028Z,49.00
2023-04-13T08:54:39.304Z,49.00
2023-04-13T08:57:16.398Z,49.10
2023-04-13T08:59:46.111Z,49.20
2023-04-13T09:02:15.914Z,49.20
2023-04-13T09:04:56.388Z,49.20
2023-04-13T09:07:28.867Z,49.20
2023-04-13T09:10:03.196Z,49.40
2023-04-13T09:12:34.909Z,49.80
2023-04-13T09:15:07.281Z,49.40
2023-04-13T09:17:43.338Z,49.50
2023-04-13T09:20:20.474Z,49.50
2023-04-13T09:22:50.154Z,49.70
2023-04-13T09:25:23.589Z,49.60
2023-04-13T09:27:53.760Z,49.70
2023-04-13T09:30:24.086Z,49.70
2023-04-13T09:33:05.803Z,49.70
2023-04-13T09:35:35.790Z,49.70
2023-04-13T09:38:05.087Z,49.60
2023-04-13T09:40:38.318Z,49.50
2023-04-13T09:43:09.697Z,49.50
2023-04-13T09:45:40.263Z,49.40
2023-04-13T09:48:20.570Z,49.40
2023-04-13T09:51:00.611Z,49.50
2023-04-13T09:53:42.508Z,49.40
2023-04-13T09:56:11.750Z,49.50
2023-04-13T09:58:46.238Z,49.50
2023-04-13T10:01:16.272Z,49.40
2023-04-13T10:03:45.917Z,49.40
2023-04-13T10:06:15.349Z,49.30
2023-04-13T10:08:46.359Z,49.50
2023-04-13T10:11:16.348Z,49.50
2023-04-13T10:13:53.567Z,49.50
2023-04-13T10:16:59.750Z,49.50
2023-04-13T10:19:34.222Z,49.70
2023-04-13T10:22:08.925Z,49.50
2023-04-13T10:24:38.764Z,49.40
2023-04-13T10:27:16.508Z,49.40
2023-04-13T10:29:47.479Z,49.30
2023-04-13T10:32:24.514Z,49.30
2023-04-13T10:34:54.127Z,49.20
2023-04-13T10:37:24.477Z,49.20
2023-04-13T10:40:06.296Z,49.40
2023-04-13T10:45:26.206Z,49.50
2023-04-13T10:47:56.418Z,49.60
2023-04-13T10:50:28.847Z,49.60
2023-04-13T10:53:03.884Z,49.60
2023-04-13T10:55:33.225Z,49.70
2023-04-13T10:58:03.853Z,49.90
2023-04-13T11:03:06.641Z,50.00
2023-04-13T11:05:35.949Z,50.00
2023-04-13T11:08:05.213Z,49.90
2023-04-13T11:10:34.117Z,50.00
2023-04-13T11:13:02.758Z,49.90
2023-04-13T11:15:34.236Z,49.80
2023-04-13T11:18:03.728Z,49.70
2023-04-13T11:20:33.815Z,49.80
2023-04-13T11:23:06.149Z,49.80
2023-04-13T11:25:35.373Z,49.90
2023-04-13T11:28:05.591Z,49.90
2023-04-13T11:30:36.076Z,49.90
2023-04-13T11:33:04.893Z,49.90
2023-04-13T11:35:34.069Z,49.80
2023-04-13T11:38:02.766Z,50.40
2023-04-13T11:40:31.639Z,49.90
2023-04-13T11:43:01.383Z,49.90
2023-04-13T11:45:31.198Z,50.00
2023-04-13T11:48:06.129Z,50.10
2023-04-13T11:50:35.133Z,50.00
2023-04-13T11:53:04.716Z,49.90
2023-04-13T11:55:50.065Z,50.00
2023-04-13T11:58:22.977Z,50.10
2023-04-13T12:00:51.976Z,50.60
2023-04-13T12:03:38.225Z,50.60
2023-04-13T12:06:11.144Z,50.80
2023-04-13T12:08:40.595Z,50.70
2023-04-13T12:13:52.417Z,50.70
2023-04-13T12:19:14.070Z,50.60
2023-04-13T12:21:53.379Z,50.50
2023-04-13T12:24:22.136Z,50.60
2023-04-13T12:29:24.335Z,50.50
2023-04-13T12:31:53.011Z,50.40
2023-04-13T12:34:23.620Z,50.70
2023-04-13T12:36:52.396Z,50.80
2023-04-13T12:39:21.434Z,51.10
2023-04-13T12:41:50.001Z,51.20
2023-04-13T12:44:18.715Z,51.20
2023-04-13T12:46:47.493Z,51.10
2023-04-13T12:49:16.252Z,51.10
2023-04-13T12:51:46.276Z,51.00
2023-04-13T12:54:17.942Z,50.70
2023-04-13T12:56:46.685Z,50.60
2023-04-13T12:59:16.768Z,50.60
2023-04-13T13:01:45.488Z,50.70
2023-04-13T13:04:14.189Z,50.60
2023-04-13T13:06:42.889Z,50.80
2023-04-13T13:09:12.900Z,50.80
2023-04-13T13:11:42.086Z,50.60
2023-04-13T13:14:11.471Z,50.70
2023-04-13T13:16:40.215Z,50.80
2023-04-13T13:19:09.184Z,50.70
2023-04-13T13:21:37.906Z,50.60
2023-04-13T13:24:08.288Z,50.60
2023-04-13T13:27:00.330Z,50.50
2023-04-13T13:29:30.955Z,50.30
2023-04-13T13:31:59.758Z,50.30
2023-04-13T13:34:28.476Z,50.20
2023-04-13T13:36:57.100Z,50.40
2023-04-13T13:39:27.270Z,50.30
2023-04-13T13:41:58.468Z,50.40
2023-04-13T13:44:27.181Z,50.40
2023-04-13T13:46:55.919Z,50.40
2023-04-13T13:49:28.402Z,50.40
2023-04-13T13:52:06.575Z,50.40
2023-04-13T13:54:43.079Z,50.50
2023-04-13T13:57:13.116Z,50.40
2023-04-13T13:59:41.726Z,50.40
2023-04-13T14:02:10.482Z,50.20
2023-04-13T14:04:43.160Z,50.30
2023-04-13T14:07:11.936Z,50.30
2023-04-13T14:09:40.560Z,50.30
2023-04-13T14:12:09.494Z,50.20
2023-04-13T14:14:39.551Z,50.20
2023-04-13T14:17:08.369Z,50.20
2023-04-13T14:19:37.010Z,50.40
2023-04-13T14:22:05.671Z,50.50
2023-04-13T14:24:34.318Z,50.40
2023-04-13T14:27:03.068Z,50.60
2023-04-13T14:29:31.844Z,50.70
2023-04-13T14:32:01.962Z,50.60
2023-04-13T14:34:30.928Z,50.50
2023-04-13T14:36:59.639Z,50.70
2023-04-13T14:39:28.295Z,50.70
2023-04-13T14:41:57.029Z,50.80
2023-04-13T14:44:25.716Z,51.00
2023-04-13T14:46:54.401Z,50.90
2023-04-13T14:49:24.496Z,50.70
2023-04-13T14:51:53.365Z,50.80
2023-04-13T14:54:22.206Z,50.90
2023-04-13T14:56:50.988Z,50.90
2023-04-13T14:59:19.709Z,50.90
2023-04-13T15:01:48.633Z,50.80
2023-04-13T15:04:19.113Z,51.00
2023-04-13T15:06:49.551Z,51.10
2023-04-13T15:09:19.113Z,51.10
2023-04-13T15:11:47.757Z,51.00
2023-04-13T15:14:16.399Z,51.10
2023-04-13T15:16:45.152Z,51.10
2023-04-13T15:19:14.227Z,51.00
2023-04-13T15:21:42.902Z,51.10
2023-04-13T15:24:12.931Z,50.90
2023-04-13T15:26:42.977Z,50.90
2023-04-13T15:29:12.173Z,50.80
2023-04-13T15:31:40.890Z,50.80
2023-04-13T15:34:09.567Z,50.80
2023-04-13T15:36:38.385Z,50.80
2023-04-13T15:39:07.073Z,50.70
2023-04-13T15:41:37.071Z,50.70
2023-04-13T15:44:06.340Z,50.60
2023-04-13T15:46:35.142Z,50.60
2023-04-13T15:49:03.911Z,50.50
2023-04-13T15:51:33.082Z,50.60
2023-04-13T15:54:01.819Z,50.60
2023-04-13T15:56:30.520Z,50.60
2023-04-13T15:59:00.632Z,51.10
2023-04-13T16:01:29.404Z,50.60
2023-04-13T16:03:58.392Z,51.30
2023-04-13T16:06:27.561Z,50.50
2023-04-13T16:08:57.008Z,50.60
2023-04-13T16:11:28.432Z,50.80
2023-04-13T16:14:07.251Z,51.10
2023-04-13T16:16:44.520Z,51.20
2023-04-13T16:19:13.822Z,51.20
2023-04-13T16:21:43.953Z,51.30
2023-04-13T16:24:12.919Z,51.40
2023-04-13T16:26:41.612Z,51.40
2023-04-13T16:29:14.149Z,51.40
2023-04-13T16:31:45.035Z,51.50
2023-04-13T16:34:25.657Z,51.40
2023-04-13T16:36:55.133Z,51.40
2023-04-13T16:39:23.823Z,51.50
2023-04-13T16:41:52.660Z,52.20
2023-04-13T16:44:22.709Z,51.50
2023-04-13T16:46:52.091Z,51.60
2023-04-13T16:49:21.078Z,51.60
2023-04-13T16:51:49.728Z,51.60
2023-04-13T16:54:19.340Z,51.60
2023-04-13T16:56:48.213Z,51.40
2023-04-13T16:59:17.054Z,51.40
2023-04-13T17:01:47.236Z,51.30
2023-04-13T17:04:16.109Z,51.30
2023-04-13T17:06:47.883Z,51.40
2023-04-13T17:09:19.721Z,51.20
2023-04-13T17:11:48.324Z,51.10
2023-04-13T17:14:17.115Z,51.10
2023-04-13T17:16:47.260Z,51.10
2023-04-13T17:19:16.754Z,51.00
2023-04-13T17:21:45.654Z,51.00
2023-04-13T17:24:14.278Z,50.80
2023-04-13T17:26:42.954Z,50.70
2023-04-13T17:29:11.575Z,50.80
2023-04-13T17:31:40.235Z,51.60
2023-04-13T17:34:10.507Z,51.90
2023-04-13T17:36:39.162Z,52.00
2023-04-13T17:39:08.371Z,52.50
2023-04-13T17:41:37.759Z,51.60
2023-04-13T17:44:06.734Z,51.30
2023-04-13T17:46:35.422Z,51.10
2023-04-13T17:49:04.046Z,51.00
2023-04-13T17:51:34.439Z,51.00
2023-04-13T17:54:07.768Z,50.70
2023-04-13T17:56:36.734Z,50.90
2023-04-13T17:59:08.115Z,50.90
2023-04-13T18:01:37.173Z,51.00
2023-04-13T18:04:06.401Z,51.20
2023-04-13T18:06:36.853Z,51.30
2023-04-13T18:09:05.606Z,51.40
2023-04-13T18:11:34.437Z,51.30
2023-04-13T18:14:03.765Z,51.20
2023-04-13T18:16:33.120Z,51.10
2023-04-13T18:19:02.076Z,51.00
2023-04-13T18:21:32.446Z,50.90
2023-04-13T18:24:02.827Z,50.90
2023-04-13T18:26:31.856Z,50.90
2023-04-13T18:29:00.506Z,51.00
2023-04-13T18:31:29.198Z,51.00
2023-04-13T18:33:58.418Z,51.00
2023-04-13T18:36:27.789Z,51.00
2023-04-13T18:39:00.504Z,51.00
2023-04-13T18:41:31.691Z,51.00
2023-04-13T18:44:00.701Z,50.90
2023-04-13T18:46:29.670Z,50.90
2023-04-13T18:48:58.243Z,50.90
2023-04-13T18:51:28.248Z,50.80
2023-04-13T18:53:57.211Z,50.70
2023-04-13T18:56:26.870Z,50.80
2023-04-13T18:58:57.118Z,50.80
2023-04-13T19:01:25.814Z,50.70
2023-04-13T19:03:54.880Z,50.60
2023-04-13T19:06:23.813Z,50.60
2023-04-13T19:08:52.485Z,50.60
2023-04-13T19:11:22.468Z,50.60
2023-04-13T19:13:51.102Z,50.50
2023-04-13T19:16:21.703Z,50.50
2023-04-13T19:18:50.451Z,50.50
2023-04-13T19:21:23.689Z,50.50
2023-04-13T19:23:52.986Z,50.40
2023-04-13T19:26:21.599Z,50.40
2023-04-13T19:28:50.529Z,50.40
2023-04-13T19:31:20.515Z,50.40
2023-04-13T19:33:49.214Z,50.30
2023-04-13T19:36:17.870Z,50.20
2023-04-13T19:38:47.143Z,50.20
2023-04-13T19:41:15.910Z,50.10
2023-04-13T19:43:44.615Z,50.00
2023-04-13T19:46:13.290Z,50.00
2023-04-13T19:48:43.395Z,50.00
2023-04-13T19:51:12.033Z,49.90
2023-04-13T19:53:40.677Z,50.00
2023-04-13T19:56:09.316Z,49.90
2023-04-13T19:58:37.945Z,49.90
2023-04-13T20:01:07.840Z,49.80
2023-04-13T20:03:37.461Z,49.90
2023-04-13T20:06:07.823Z,50.00
2023-04-13T20:08:37.010Z,50.00
2023-04-13T20:11:05.727Z,50.10
2023-04-13T20:13:34.398Z,50.10
2023-04-13T20:16:03.079Z,50.00
2023-04-13T20:18:31.786Z,50.00
2023-04-13T20:21:01.466Z,50.00
2023-04-13T20:23:31.596Z,50.00
2023-04-13T20:26:00.438Z,50.00
2023-04-13T20:28:29.082Z,50.00
2023-04-13T20:30:57.747Z,50.00
2023-04-13T20:33:26.450Z,50.00
2023-04-13T20:35:55.506Z,50.00
2023-04-13T20:38:24.869Z,50.00
2023-04-13T20:40:57.072Z,50.00
2023-04-13T20:43:25.672Z,49.90
2023-04-13T20:45:57.344Z,49.90
2023-04-13T20:51:01.857Z,49.90
2023-04-13T20:53:31.963Z,49.90
2023-04-13T20:56:02.112Z,49.80
2023-04-13T20:58:32.458Z,49.80
2023-04-13T21:01:01.562Z,49.70
2023-04-13T21:03:32.089Z,49.80
2023-04-13T21:06:01.411Z,49.80
2023-04-13T21:08:30.086Z,49.60
2023-04-13T21:10:58.694Z,49.50
2023-04-13T21:13:30.450Z,49.40
2023-04-13T21:15:59.291Z,49.40
2023-04-13T21:18:27.945Z,49.50
2023-04-13T21:20:56.731Z,49.50
2023-04-13T21:23:25.412Z,49.40
2023-04-13T21:25:54.034Z,49.50
2023-04-13T21:28:22.729Z,49.50
2023-04-13T21:30:52.764Z,49.40
2023-04-13T21:33:21.605Z,49.40
2023-04-13T21:35:50.258Z,49.40
2023-04-13T21:38:18.844Z,49.40
2023-04-13T21:40:47.491Z,49.50
2023-04-13T21:43:16.963Z,49.30
2023-04-13T21:45:45.735Z,49.10
2023-04-13T21:48:16.080Z,49.10
2023-04-13T21:50:44.761Z,48.90
2023-04-13T21:53:13.570Z,49.00
2023-04-13T21:55:42.274Z,48.90
2023-04-13T21:58:11.021Z,48.80
2023-04-13T22:00:39.701Z,48.80
2023-04-13T22:03:08.451Z,48.80
2023-04-13T22:05:38.647Z,48.80
2023-04-13T22:08:07.435Z,48.70
2023-04-13T22:10:36.063Z,48.70
2023-04-13T22:13:04.635Z,48.80
2023-04-13T22:15:33.492Z,48.70
2023-04-13T22:18:02.208Z,48.70
2023-04-13T22:20:30.970Z,48.70
2023-04-13T22:23:00.995Z,48.80
2023-04-13T22:25:29.631Z,48.80
2023-04-13T22:27:58.247Z,48.80
2023-04-13T22:30:26.869Z,48.90
2023-04-13T22:32:55.511Z,48.80
2023-04-13T22:35:24.288Z,48.90
2023-04-13T22:37:53.431Z,48.90
2023-04-13T22:40:23.547Z,49.00
2023-04-13T22:42:55.028Z,49.10
2023-04-13T22:45:24.066Z,49.10
2023-04-13T22:47:54.665Z,49.10
2023-04-13T22:50:23.588Z,48.90
2023-04-13T22:52:53.269Z,49.00
2023-04-13T22:55:23.282Z,49.00
2023-04-13T22:57:51.892Z,48.90
2023-04-13T23:00:21.096Z,48.90
2023-04-13T23:02:50.756Z,48.90
2023-04-13T23:05:19.924Z,48.90
2023-04-13T23:07:50.288Z,48.80
2023-04-13T23:10:19.166Z,48.70
2023-04-13T23:12:49.271Z,48.70
2023-04-13T23:15:18.094Z,48.60
2023-04-13T23:17:46.787Z,48.70
2023-04-13T23:20:15.539Z,48.70
2023-04-13T23:22:44.330Z,48.60
2023-04-13T23:25:13.387Z,48.60
2023-04-13T23:27:42.023Z,48.50
2023-04-13T23:30:14.188Z,48.50
2023-04-13T23:32:42.968Z,48.50
2023-04-13T23:35:11.844Z,48.50
2023-04-13T23:37:42.238Z,48.60
2023-04-13T23:40:11.857Z,48.60
2023-04-13T23:42:40.944Z,48.50
2023-04-13T23:45:12.110Z,48.50
2023-04-13T23:47:40.812Z,48.50
2023-04-13T23:50:10.333Z,48.60
2023-04-13T23:52:38.916Z,48.90
2023-04-13T23:55:08.319Z,48.70
2023-04-13T23:57:37.174Z,48.70
